Union Center, Pennsylvania
Current Conditions -  °F | °C
As of 7:15 PM on Sunday 23 Nov 2014 (Local Time) from KN38 Reporting Station
Clear Clear  
Wind Chill: 38°   Ceiling: Unl
Heat Index: 45°   Visibility: 10mi
Dew Point: 27°   Wind: 13mph
Humidity: 49%   Direction: 180°S
Pressure: 29.94"   Gusts: 18mph
Location:  41.669°N, 76.8999°W
Report Text: KN38 240015Z AUTO 18011G16KT 10SM CLR 07/M03 A2994 RMK AO2
Loading
Personal Weather Stations






























Interactive Weather Map New forecast layout! Learn more

10-Day Weather Forecast

Advertisements
Track Severe Weather on mobile